sensor_id;sensor_type;location;lat;lon;timestamp;P1;durP1;ratioP1;P2;durP2;ratioP2
23658;SDS011;12006;42.666;23.326;2023-08-07T00:00:34;1.50;;;1.40;;
23658;SDS011;12006;42.666;23.326;2023-08-07T00:03:58;1.33;;;1.23;;
23658;SDS011;12006;42.666;23.326;2023-08-07T00:07:22;1.63;;;1.40;;
23658;SDS011;12006;42.666;23.326;2023-08-07T00:10:46;1.58;;;1.48;;
23658;SDS011;12006;42.666;23.326;2023-08-07T00:14:10;1.40;;;1.30;;
23658;SDS011;12006;42.666;23.326;2023-08-07T00:17:35;1.52;;;1.42;;
23658;SDS011;12006;42.666;23.326;2023-08-07T00:20:59;1.50;;;1.40;;
23658;SDS011;12006;42.666;23.326;2023-08-07T00:24:23;1.50;;;1.40;;
23658;SDS011;12006;42.666;23.326;2023-08-07T00:27:47;1.42;;;1.33;;
23658;SDS011;12006;42.666;23.326;2023-08-07T00:31:11;1.52;;;1.42;;
23658;SDS011;12006;42.666;23.326;2023-08-07T00:34:35;1.80;;;1.70;;
23658;SDS011;12006;42.666;23.326;2023-08-07T00:37:59;1.70;;;1.60;;
23658;SDS011;12006;42.666;23.326;2023-08-07T00:41:22;1.80;;;1.70;;
23658;SDS011;12006;42.666;23.326;2023-08-07T00:44:46;1.67;;;1.58;;
23658;SDS011;12006;42.666;23.326;2023-08-07T00:48:12;2.00;;;1.90;;
23658;SDS011;12006;42.666;23.326;2023-08-07T00:51:37;2.80;;;2.60;;
23658;SDS011;12006;42.666;23.326;2023-08-07T00:55:02;3.05;;;2.85;;
23658;SDS011;12006;42.666;23.326;2023-08-07T00:58:27;3.85;;;3.55;;
23658;SDS011;12006;42.666;23.326;2023-08-07T01:01:51;2.88;;;2.67;;
23658;SDS011;12006;42.666;23.326;2023-08-07T01:05:17;3.08;;;2.70;;
23658;SDS011;12006;42.666;23.326;2023-08-07T01:08:41;2.70;;;2.30;;
23658;SDS011;12006;42.666;23.326;2023-08-07T01:15:46;2.80;;;2.60;;
23658;SDS011;12006;42.666;23.326;2023-08-07T01:19:24;2.78;;;2.55;;
23658;SDS011;12006;42.666;23.326;2023-08-07T01:22:48;2.53;;;2.33;;
23658;SDS011;12006;42.666;23.326;2023-08-07T01:26:12;2.50;;;2.30;;
23658;SDS011;12006;42.666;23.326;2023-08-07T01:33:12;2.42;;;2.22;;
23658;SDS011;12006;42.666;23.326;2023-08-07T01:36:43;2.40;;;2.20;;
23658;SDS011;12006;42.666;23.326;2023-08-07T01:40:09;2.88;;;2.58;;
23658;SDS011;12006;42.666;23.326;2023-08-07T01:43:34;2.58;;;2.38;;
23658;SDS011;12006;42.666;23.326;2023-08-07T01:46:58;3.05;;;2.75;;
23658;SDS011;12006;42.666;23.326;2023-08-07T01:50:22;3.00;;;2.80;;
23658;SDS011;12006;42.666;23.326;2023-08-07T01:53:46;2.63;;;2.42;;
23658;SDS011;12006;42.666;23.326;2023-08-07T01:57:10;2.90;;;2.60;;
23658;SDS011;12006;42.666;23.326;2023-08-07T02:00:34;2.67;;;2.47;;
23658;SDS011;12006;42.666;23.326;2023-08-07T02:03:58;3.00;;;2.80;;
23658;SDS011;12006;42.666;23.326;2023-08-07T02:07:22;3.08;;;2.88;;
23658;SDS011;12006;42.666;23.326;2023-08-07T02:10:46;3.45;;;2.88;;
23658;SDS011;12006;42.666;23.326;2023-08-07T02:14:09;3.38;;;3.08;;
23658;SDS011;12006;42.666;23.326;2023-08-07T02:17:34;2.70;;;2.50;;
23658;SDS011;12006;42.666;23.326;2023-08-07T02:20:58;3.28;;;2.97;;
23658;SDS011;12006;42.666;23.326;2023-08-07T02:24:22;3.00;;;2.80;;
23658;SDS011;12006;42.666;23.326;2023-08-07T02:27:46;2.75;;;2.38;;
23658;SDS011;12006;42.666;23.326;2023-08-07T02:31:10;2.85;;;2.53;;
23658;SDS011;12006;42.666;23.326;2023-08-07T02:34:34;2.97;;;2.78;;
23658;SDS011;12006;42.666;23.326;2023-08-07T02:37:57;2.63;;;2.42;;
23658;SDS011;12006;42.666;23.326;2023-08-07T02:41:21;2.63;;;2.42;;
23658;SDS011;12006;42.666;23.326;2023-08-07T02:44:45;2.80;;;2.60;;
23658;SDS011;12006;42.666;23.326;2023-08-07T02:48:10;3.38;;;3.08;;
23658;SDS011;12006;42.666;23.326;2023-08-07T02:51:34;2.90;;;2.70;;
23658;SDS011;12006;42.666;23.326;2023-08-07T02:54:58;2.63;;;2.40;;
23658;SDS011;12006;42.666;23.326;2023-08-07T02:58:22;2.88;;;2.67;;
23658;SDS011;12006;42.666;23.326;2023-08-07T03:01:46;2.50;;;2.30;;
23658;SDS011;12006;42.666;23.326;2023-08-07T03:05:10;2.83;;;2.58;;
23658;SDS011;12006;42.666;23.326;2023-08-07T03:08:33;2.97;;;2.78;;
23658;SDS011;12006;42.666;23.326;2023-08-07T03:11:58;3.25;;;2.72;;
23658;SDS011;12006;42.666;23.326;2023-08-07T03:15:21;3.63;;;3.33;;
23658;SDS011;12006;42.666;23.326;2023-08-07T03:18:45;3.45;;;3.15;;
23658;SDS011;12006;42.666;23.326;2023-08-07T03:22:09;2.90;;;2.70;;
23658;SDS011;12006;42.666;23.326;2023-08-07T03:25:33;3.13;;;2.90;;
23658;SDS011;12006;42.666;23.326;2023-08-07T03:28:57;3.40;;;3.10;;
23658;SDS011;12006;42.666;23.326;2023-08-07T03:32:21;2.80;;;2.60;;
23658;SDS011;12006;42.666;23.326;2023-08-07T03:35:45;3.22;;;3.03;;
23658;SDS011;12006;42.666;23.326;2023-08-07T03:39:09;3.17;;;2.88;;
23658;SDS011;12006;42.666;23.326;2023-08-07T03:42:33;3.40;;;3.10;;
23658;SDS011;12006;42.666;23.326;2023-08-07T03:45:57;2.95;;;2.75;;
23658;SDS011;12006;42.666;23.326;2023-08-07T03:49:22;2.88;;;2.67;;
23658;SDS011;12006;42.666;23.326;2023-08-07T03:52:46;3.20;;;2.90;;
23658;SDS011;12006;42.666;23.326;2023-08-07T03:56:10;3.33;;;3.13;;
23658;SDS011;12006;42.666;23.326;2023-08-07T03:59:35;3.47;;;2.97;;
23658;SDS011;12006;42.666;23.326;2023-08-07T04:02:59;2.90;;;2.70;;
23658;SDS011;12006;42.666;23.326;2023-08-07T04:06:23;2.40;;;2.20;;
23658;SDS011;12006;42.666;23.326;2023-08-07T04:09:47;2.95;;;2.75;;
23658;SDS011;12006;42.666;23.326;2023-08-07T04:13:22;2.60;;;2.40;;
23658;SDS011;12006;42.666;23.326;2023-08-07T04:16:46;2.97;;;2.67;;
23658;SDS011;12006;42.666;23.326;2023-08-07T04:20:10;2.90;;;2.60;;
23658;SDS011;12006;42.666;23.326;2023-08-07T04:23:34;2.97;;;2.78;;
23658;SDS011;12006;42.666;23.326;2023-08-07T04:26:57;2.65;;;2.45;;
23658;SDS011;12006;42.666;23.326;2023-08-07T04:30:21;2.47;;;2.28;;
23658;SDS011;12006;42.666;23.326;2023-08-07T04:33:45;2.70;;;2.50;;
23658;SDS011;12006;42.666;23.326;2023-08-07T04:37:09;2.85;;;2.65;;
23658;SDS011;12006;42.666;23.326;2023-08-07T04:40:33;2.38;;;2.17;;
23658;SDS011;12006;42.666;23.326;2023-08-07T04:43:57;3.45;;;2.17;;
23658;SDS011;12006;42.666;23.326;2023-08-07T04:47:21;2.42;;;2.22;;
23658;SDS011;12006;42.666;23.326;2023-08-07T04:50:46;3.53;;;2.80;;
23658;SDS011;12006;42.666;23.326;2023-08-07T04:54:09;3.60;;;2.70;;
23658;SDS011;12006;42.666;23.326;2023-08-07T04:57:33;3.00;;;2.80;;
23658;SDS011;12006;42.666;23.326;2023-08-07T05:00:58;2.78;;;2.58;;
23658;SDS011;12006;42.666;23.326;2023-08-07T05:04:22;2.90;;;2.60;;
23658;SDS011;12006;42.666;23.326;2023-08-07T05:07:46;2.65;;;2.45;;
23658;SDS011;12006;42.666;23.326;2023-08-07T05:11:10;2.58;;;2.38;;
23658;SDS011;12006;42.666;23.326;2023-08-07T05:14:34;2.42;;;2.20;;
23658;SDS011;12006;42.666;23.326;2023-08-07T05:17:58;2.72;;;2.53;;
23658;SDS011;12006;42.666;23.326;2023-08-07T05:21:22;2.60;;;2.40;;
23658;SDS011;12006;42.666;23.326;2023-08-07T05:24:46;3.00;;;2.70;;
23658;SDS011;12006;42.666;23.326;2023-08-07T05:28:12;2.20;;;2.10;;
23658;SDS011;12006;42.666;23.326;2023-08-07T05:31:35;2.35;;;2.10;;
23658;SDS011;12006;42.666;23.326;2023-08-07T05:35:03;2.58;;;2.38;;
23658;SDS011;12006;42.666;23.326;2023-08-07T05:38:27;3.28;;;2.35;;
23658;SDS011;12006;42.666;23.326;2023-08-07T05:41:51;2.55;;;2.35;;
23658;SDS011;12006;42.666;23.326;2023-08-07T05:45:15;3.13;;;2.10;;
23658;SDS011;12006;42.666;23.326;2023-08-07T05:48:38;2.20;;;2.00;;
23658;SDS011;12006;42.666;23.326;2023-08-07T05:52:02;2.38;;;1.85;;
23658;SDS011;12006;42.666;23.326;2023-08-07T05:55:27;2.53;;;2.33;;
23658;SDS011;12006;42.666;23.326;2023-08-07T05:58:50;3.08;;;2.42;;
23658;SDS011;12006;42.666;23.326;2023-08-07T06:02:14;2.53;;;2.25;;
23658;SDS011;12006;42.666;23.326;2023-08-07T06:05:39;2.10;;;2.00;;
23658;SDS011;12006;42.666;23.326;2023-08-07T06:09:04;2.13;;;1.92;;
23658;SDS011;12006;42.666;23.326;2023-08-07T06:12:28;3.13;;;2.17;;
23658;SDS011;12006;42.666;23.326;2023-08-07T06:15:52;2.67;;;2.47;;
23658;SDS011;12006;42.666;23.326;2023-08-07T06:19:17;2.85;;;2.17;;
23658;SDS011;12006;42.666;23.326;2023-08-07T06:22:41;3.10;;;2.15;;
23658;SDS011;12006;42.666;23.326;2023-08-07T06:26:05;2.40;;;2.20;;
23658;SDS011;12006;42.666;23.326;2023-08-07T06:29:29;2.50;;;2.30;;
23658;SDS011;12006;42.666;23.326;2023-08-07T06:32:53;2.25;;;1.88;;
23658;SDS011;12006;42.666;23.326;2023-08-07T06:36:16;2.53;;;2.33;;
23658;SDS011;12006;42.666;23.326;2023-08-07T06:39:40;1.85;;;1.75;;
23658;SDS011;12006;42.666;23.326;2023-08-07T06:43:04;1.80;;;1.70;;
23658;SDS011;12006;42.666;23.326;2023-08-07T06:46:29;1.20;;;1.10;;
23658;SDS011;12006;42.666;23.326;2023-08-07T06:49:52;1.20;;;1.10;;
23658;SDS011;12006;42.666;23.326;2023-08-07T06:53:16;1.83;;;1.73;;
23658;SDS011;12006;42.666;23.326;2023-08-07T06:56:40;1.20;;;1.10;;
23658;SDS011;12006;42.666;23.326;2023-08-07T07:00:05;1.73;;;1.20;;
23658;SDS011;12006;42.666;23.326;2023-08-07T07:03:29;1.05;;;0.98;;
23658;SDS011;12006;42.666;23.326;2023-08-07T07:06:53;1.10;;;1.00;;
23658;SDS011;12006;42.666;23.326;2023-08-07T07:10:17;1.08;;;1.08;;
23658;SDS011;12006;42.666;23.326;2023-08-07T07:13:41;1.30;;;1.20;;
23658;SDS011;12006;42.666;23.326;2023-08-07T07:17:04;2.75;;;1.60;;
23658;SDS011;12006;42.666;23.326;2023-08-07T07:20:28;2.42;;;1.40;;
23658;SDS011;12006;42.666;23.326;2023-08-07T07:23:52;1.25;;;1.02;;
23658;SDS011;12006;42.666;23.326;2023-08-07T07:27:16;1.40;;;1.30;;
23658;SDS011;12006;42.666;23.326;2023-08-07T07:30:40;1.20;;;1.15;;
23658;SDS011;12006;42.666;23.326;2023-08-07T07:34:04;1.63;;;1.50;;
23658;SDS011;12006;42.666;23.326;2023-08-07T07:37:29;1.30;;;1.20;;
23658;SDS011;12006;42.666;23.326;2023-08-07T07:40:53;2.20;;;1.63;;
23658;SDS011;12006;42.666;23.326;2023-08-07T07:44:17;1.25;;;1.15;;
23658;SDS011;12006;42.666;23.326;2023-08-07T07:47:41;1.35;;;1.25;;
23658;SDS011;12006;42.666;23.326;2023-08-07T07:51:05;1.50;;;1.40;;
23658;SDS011;12006;42.666;23.326;2023-08-07T07:54:30;2.10;;;1.90;;
23658;SDS011;12006;42.666;23.326;2023-08-07T07:57:54;1.48;;;1.38;;
23658;SDS011;12006;42.666;23.326;2023-08-07T08:01:18;1.70;;;1.50;;
23658;SDS011;12006;42.666;23.326;2023-08-07T08:04:42;1.45;;;1.35;;
23658;SDS011;12006;42.666;23.326;2023-08-07T08:08:06;1.30;;;1.20;;
23658;SDS011;12006;42.666;23.326;2023-08-07T08:11:30;1.55;;;1.45;;
23658;SDS011;12006;42.666;23.326;2023-08-07T08:14:55;2.35;;;1.80;;
23658;SDS011;12006;42.666;23.326;2023-08-07T08:18:19;1.40;;;1.30;;
23658;SDS011;12006;42.666;23.326;2023-08-07T08:21:43;1.67;;;1.58;;
23658;SDS011;12006;42.666;23.326;2023-08-07T08:25:07;3.08;;;2.80;;
23658;SDS011;12006;42.666;23.326;2023-08-07T08:28:31;2.33;;;2.13;;
23658;SDS011;12006;42.666;23.326;2023-08-07T08:31:55;3.78;;;3.40;;
23658;SDS011;12006;42.666;23.326;2023-08-07T08:35:19;1.80;;;1.55;;
23658;SDS011;12006;42.666;23.326;2023-08-07T08:38:43;5.55;;;4.90;;
23658;SDS011;12006;42.666;23.326;2023-08-07T08:42:08;3.47;;;2.55;;
23658;SDS011;12006;42.666;23.326;2023-08-07T08:45:37;1.52;;;1.42;;
23658;SDS011;12006;42.666;23.326;2023-08-07T08:49:01;1.48;;;1.38;;
23658;SDS011;12006;42.666;23.326;2023-08-07T08:52:31;1.40;;;1.30;;
23658;SDS011;12006;42.666;23.326;2023-08-07T08:55:56;1.50;;;1.25;;
23658;SDS011;12006;42.666;23.326;2023-08-07T08:59:22;1.73;;;1.58;;
23658;SDS011;12006;42.666;23.326;2023-08-07T09:02:50;1.58;;;1.48;;
23658;SDS011;12006;42.666;23.326;2023-08-07T09:06:14;1.13;;;1.02;;
23658;SDS011;12006;42.666;23.326;2023-08-07T09:09:39;1.10;;;1.00;;
23658;SDS011;12006;42.666;23.326;2023-08-07T09:13:04;1.25;;;1.17;;
23658;SDS011;12006;42.666;23.326;2023-08-07T09:16:34;1.23;;;1.13;;
23658;SDS011;12006;42.666;23.326;2023-08-07T09:20:03;1.20;;;1.10;;
23658;SDS011;12006;42.666;23.326;2023-08-07T09:23:27;1.38;;;1.27;;
23658;SDS011;12006;42.666;23.326;2023-08-07T09:26:51;1.50;;;1.20;;
23658;SDS011;12006;42.666;23.326;2023-08-07T09:30:15;1.45;;;1.35;;
23658;SDS011;12006;42.666;23.326;2023-08-07T09:33:40;1.10;;;1.00;;
23658;SDS011;12006;42.666;23.326;2023-08-07T09:37:04;1.35;;;1.25;;
23658;SDS011;12006;42.666;23.326;2023-08-07T09:40:29;1.30;;;1.20;;
23658;SDS011;12006;42.666;23.326;2023-08-07T09:43:54;1.40;;;1.30;;
23658;SDS011;12006;42.666;23.326;2023-08-07T09:47:18;2.33;;;2.13;;
23658;SDS011;12006;42.666;23.326;2023-08-07T09:50:50;1.20;;;1.10;;
23658;SDS011;12006;42.666;23.326;2023-08-07T09:54:16;4.10;;;3.78;;
23658;SDS011;12006;42.666;23.326;2023-08-07T09:57:42;1.77;;;1.67;;
23658;SDS011;12006;42.666;23.326;2023-08-07T10:01:11;1.35;;;1.25;;
23658;SDS011;12006;42.666;23.326;2023-08-07T10:04:36;1.58;;;1.40;;
23658;SDS011;12006;42.666;23.326;2023-08-07T10:08:00;2.85;;;2.47;;
23658;SDS011;12006;42.666;23.326;2023-08-07T10:11:25;1.30;;;1.20;;
23658;SDS011;12006;42.666;23.326;2023-08-07T10:14:51;1.33;;;1.23;;
23658;SDS011;12006;42.666;23.326;2023-08-07T10:18:18;4.38;;;3.97;;
23658;SDS011;12006;42.666;23.326;2023-08-07T10:21:42;1.50;;;1.40;;
23658;SDS011;12006;42.666;23.326;2023-08-07T10:25:07;1.10;;;1.00;;
23658;SDS011;12006;42.666;23.326;2023-08-07T10:28:33;1.30;;;1.20;;
23658;SDS011;12006;42.666;23.326;2023-08-07T10:31:58;1.10;;;1.10;;
23658;SDS011;12006;42.666;23.326;2023-08-07T10:35:28;1.40;;;1.30;;
23658;SDS011;12006;42.666;23.326;2023-08-07T10:39:06;2.35;;;1.13;;
23658;SDS011;12006;42.666;23.326;2023-08-07T10:46:21;1.10;;;1.10;;
23658;SDS011;12006;42.666;23.326;2023-08-07T10:49:57;1.00;;;1.00;;
23658;SDS011;12006;42.666;23.326;2023-08-07T10:53:32;1.20;;;1.10;;
23658;SDS011;12006;42.666;23.326;2023-08-07T10:57:06;1.05;;;1.05;;
23658;SDS011;12006;42.666;23.326;2023-08-07T11:00:45;1.13;;;1.13;;
23658;SDS011;12006;42.666;23.326;2023-08-07T11:04:15;1.10;;;1.10;;
23658;SDS011;12006;42.666;23.326;2023-08-07T11:07:39;1.92;;;1.83;;
23658;SDS011;12006;42.666;23.326;2023-08-07T11:11:05;1.52;;;1.42;;
23658;SDS011;12006;42.666;23.326;2023-08-07T11:14:29;1.48;;;1.38;;
23658;SDS011;12006;42.666;23.326;2023-08-07T11:17:53;1.40;;;1.30;;
23658;SDS011;12006;42.666;23.326;2023-08-07T11:21:19;1.40;;;1.30;;
23658;SDS011;12006;42.666;23.326;2023-08-07T11:24:44;1.60;;;1.50;;
23658;SDS011;12006;42.666;23.326;2023-08-07T11:28:08;1.40;;;1.35;;
23658;SDS011;12006;42.666;23.326;2023-08-07T11:31:32;1.83;;;1.17;;
23658;SDS011;12006;42.666;23.326;2023-08-07T11:34:56;1.65;;;1.17;;
23658;SDS011;12006;42.666;23.326;2023-08-07T11:41:53;1.20;;;1.15;;
23658;SDS011;12006;42.666;23.326;2023-08-07T11:45:17;0.93;;;0.93;;
23658;SDS011;12006;42.666;23.326;2023-08-07T11:48:41;1.45;;;1.30;;
23658;SDS011;12006;42.666;23.326;2023-08-07T11:52:06;1.30;;;1.20;;
23658;SDS011;12006;42.666;23.326;2023-08-07T11:55:30;2.65;;;1.35;;
23658;SDS011;12006;42.666;23.326;2023-08-07T11:58:54;4.82;;;4.43;;
23658;SDS011;12006;42.666;23.326;2023-08-07T12:02:26;2.38;;;1.40;;
23658;SDS011;12006;42.666;23.326;2023-08-07T12:05:57;2.15;;;1.33;;
23658;SDS011;12006;42.666;23.326;2023-08-07T12:09:21;3.60;;;3.03;;
23658;SDS011;12006;42.666;23.326;2023-08-07T12:12:48;1.70;;;1.60;;
23658;SDS011;12006;42.666;23.326;2023-08-07T12:16:13;3.33;;;3.08;;
23658;SDS011;12006;42.666;23.326;2023-08-07T12:19:41;3.58;;;3.28;;
23658;SDS011;12006;42.666;23.326;2023-08-07T12:23:10;2.45;;;2.25;;
23658;SDS011;12006;42.666;23.326;2023-08-07T12:26:34;2.20;;;1.20;;
23658;SDS011;12006;42.666;23.326;2023-08-07T12:29:59;1.00;;;0.90;;
23658;SDS011;12006;42.666;23.326;2023-08-07T12:33:23;2.10;;;1.30;;
23658;SDS011;12006;42.666;23.326;2023-08-07T12:36:46;1.83;;;1.23;;
23658;SDS011;12006;42.666;23.326;2023-08-07T12:40:10;1.65;;;1.42;;
23658;SDS011;12006;42.666;23.326;2023-08-07T12:43:34;1.20;;;1.10;;
23658;SDS011;12006;42.666;23.326;2023-08-07T12:46:58;1.50;;;1.40;;
23658;SDS011;12006;42.666;23.326;2023-08-07T12:50:23;1.80;;;1.70;;
23658;SDS011;12006;42.666;23.326;2023-08-07T12:53:47;2.55;;;1.20;;
23658;SDS011;12006;42.666;23.326;2023-08-07T12:57:11;1.63;;;1.40;;
23658;SDS011;12006;42.666;23.326;2023-08-07T13:00:35;1.00;;;1.00;;
23658;SDS011;12006;42.666;23.326;2023-08-07T13:03:58;1.50;;;1.40;;
23658;SDS011;12006;42.666;23.326;2023-08-07T13:07:22;1.58;;;1.15;;
23658;SDS011;12006;42.666;23.326;2023-08-07T13:10:46;1.13;;;1.02;;
23658;SDS011;12006;42.666;23.326;2023-08-07T13:14:10;1.63;;;1.42;;
23658;SDS011;12006;42.666;23.326;2023-08-07T13:17:37;1.33;;;1.23;;
23658;SDS011;12006;42.666;23.326;2023-08-07T13:21:01;1.52;;;1.30;;
23658;SDS011;12006;42.666;23.326;2023-08-07T13:24:25;1.85;;;1.42;;
23658;SDS011;12006;42.666;23.326;2023-08-07T13:27:49;1.80;;;1.70;;
23658;SDS011;12006;42.666;23.326;2023-08-07T13:31:13;1.70;;;1.48;;
23658;SDS011;12006;42.666;23.326;2023-08-07T13:34:38;3.90;;;3.50;;
23658;SDS011;12006;42.666;23.326;2023-08-07T13:38:02;1.48;;;1.38;;
23658;SDS011;12006;42.666;23.326;2023-08-07T13:41:27;1.30;;;1.20;;
23658;SDS011;12006;42.666;23.326;2023-08-07T13:44:52;2.00;;;1.35;;
23658;SDS011;12006;42.666;23.326;2023-08-07T13:48:16;2.47;;;1.38;;
23658;SDS011;12006;42.666;23.326;2023-08-07T13:51:40;1.40;;;1.30;;
23658;SDS011;12006;42.666;23.326;2023-08-07T13:55:04;1.40;;;1.30;;
23658;SDS011;12006;42.666;23.326;2023-08-07T13:58:29;1.13;;;1.10;;
23658;SDS011;12006;42.666;23.326;2023-08-07T14:01:53;1.40;;;1.30;;
23658;SDS011;12006;42.666;23.326;2023-08-07T14:05:16;1.45;;;1.35;;
23658;SDS011;12006;42.666;23.326;2023-08-07T14:08:40;1.80;;;1.70;;
23658;SDS011;12006;42.666;23.326;2023-08-07T14:12:04;1.70;;;1.60;;
23658;SDS011;12006;42.666;23.326;2023-08-07T14:15:29;1.95;;;1.48;;
23658;SDS011;12006;42.666;23.326;2023-08-07T14:18:53;1.50;;;1.40;;
23658;SDS011;12006;42.666;23.326;2023-08-07T14:22:16;2.47;;;1.35;;
23658;SDS011;12006;42.666;23.326;2023-08-07T14:25:40;1.77;;;1.60;;
23658;SDS011;12006;42.666;23.326;2023-08-07T14:29:04;1.90;;;1.52;;
23658;SDS011;12006;42.666;23.326;2023-08-07T14:32:28;1.45;;;1.35;;
23658;SDS011;12006;42.666;23.326;2023-08-07T14:35:53;2.08;;;1.40;;
23658;SDS011;12006;42.666;23.326;2023-08-07T14:39:19;1.60;;;1.50;;
23658;SDS011;12006;42.666;23.326;2023-08-07T14:42:43;2.33;;;1.40;;
23658;SDS011;12006;42.666;23.326;2023-08-07T14:46:07;1.35;;;1.25;;
23658;SDS011;12006;42.666;23.326;2023-08-07T14:49:30;1.50;;;1.40;;
23658;SDS011;12006;42.666;23.326;2023-08-07T14:52:54;1.98;;;1.88;;
23658;SDS011;12006;42.666;23.326;2023-08-07T14:56:18;1.70;;;1.60;;
23658;SDS011;12006;42.666;23.326;2023-08-07T14:59:42;1.40;;;1.30;;
23658;SDS011;12006;42.666;23.326;2023-08-07T15:03:06;1.42;;;1.33;;
23658;SDS011;12006;42.666;23.326;2023-08-07T15:06:30;1.85;;;1.38;;
23658;SDS011;12006;42.666;23.326;2023-08-07T15:09:54;2.75;;;1.48;;
23658;SDS011;12006;42.666;23.326;2023-08-07T15:13:18;1.50;;;1.40;;
23658;SDS011;12006;42.666;23.326;2023-08-07T15:16:42;1.50;;;1.40;;
23658;SDS011;12006;42.666;23.326;2023-08-07T15:20:06;1.75;;;1.30;;
23658;SDS011;12006;42.666;23.326;2023-08-07T15:23:30;1.55;;;1.45;;
23658;SDS011;12006;42.666;23.326;2023-08-07T15:26:54;3.72;;;1.80;;
23658;SDS011;12006;42.666;23.326;2023-08-07T15:30:19;1.55;;;1.45;;
23658;SDS011;12006;42.666;23.326;2023-08-07T15:33:43;1.60;;;1.40;;
23658;SDS011;12006;42.666;23.326;2023-08-07T15:37:07;2.05;;;1.77;;
23658;SDS011;12006;42.666;23.326;2023-08-07T15:40:31;2.47;;;1.88;;
23658;SDS011;12006;42.666;23.326;2023-08-07T15:43:55;2.08;;;1.48;;
23658;SDS011;12006;42.666;23.326;2023-08-07T15:47:19;1.75;;;1.35;;
23658;SDS011;12006;42.666;23.326;2023-08-07T15:50:43;2.13;;;1.83;;
23658;SDS011;12006;42.666;23.326;2023-08-07T15:54:07;1.40;;;1.30;;
23658;SDS011;12006;42.666;23.326;2023-08-07T15:57:31;1.85;;;1.10;;
23658;SDS011;12006;42.666;23.326;2023-08-07T16:00:55;1.45;;;1.35;;
23658;SDS011;12006;42.666;23.326;2023-08-07T16:04:19;3.17;;;1.40;;
23658;SDS011;12006;42.666;23.326;2023-08-07T16:07:46;1.50;;;1.40;;
23658;SDS011;12006;42.666;23.326;2023-08-07T16:11:09;1.65;;;1.55;;
23658;SDS011;12006;42.666;23.326;2023-08-07T16:14:33;2.80;;;1.60;;
23658;SDS011;12006;42.666;23.326;2023-08-07T16:17:58;1.63;;;1.50;;
23658;SDS011;12006;42.666;23.326;2023-08-07T16:21:22;1.90;;;1.65;;
23658;SDS011;12006;42.666;23.326;2023-08-07T16:24:46;2.28;;;1.20;;
23658;SDS011;12006;42.666;23.326;2023-08-07T16:28:09;2.00;;;1.77;;
23658;SDS011;12006;42.666;23.326;2023-08-07T16:31:33;1.73;;;1.63;;
23658;SDS011;12006;42.666;23.326;2023-08-07T16:34:58;2.25;;;1.75;;
23658;SDS011;12006;42.666;23.326;2023-08-07T16:38:22;3.88;;;1.60;;
23658;SDS011;12006;42.666;23.326;2023-08-07T16:41:46;2.45;;;1.88;;
23658;SDS011;12006;42.666;23.326;2023-08-07T16:45:10;2.17;;;1.70;;
23658;SDS011;12006;42.666;23.326;2023-08-07T16:48:34;2.30;;;1.30;;
23658;SDS011;12006;42.666;23.326;2023-08-07T16:51:59;1.77;;;1.23;;
23658;SDS011;12006;42.666;23.326;2023-08-07T16:55:24;2.13;;;1.92;;
23658;SDS011;12006;42.666;23.326;2023-08-07T16:58:48;2.25;;;1.70;;
23658;SDS011;12006;42.666;23.326;2023-08-07T17:02:13;1.50;;;1.40;;
23658;SDS011;12006;42.666;23.326;2023-08-07T17:05:36;1.35;;;1.20;;
23658;SDS011;12006;42.666;23.326;2023-08-07T17:09:01;1.40;;;1.30;;
23658;SDS011;12006;42.666;23.326;2023-08-07T17:12:25;1.95;;;1.73;;
23658;SDS011;12006;42.666;23.326;2023-08-07T17:15:50;2.05;;;1.80;;
23658;SDS011;12006;42.666;23.326;2023-08-07T17:19:14;2.30;;;1.70;;
23658;SDS011;12006;42.666;23.326;2023-08-07T17:22:38;1.67;;;1.58;;
23658;SDS011;12006;42.666;23.326;2023-08-07T17:26:02;1.67;;;1.42;;
23658;SDS011;12006;42.666;23.326;2023-08-07T17:29:26;1.83;;;1.73;;
23658;SDS011;12006;42.666;23.326;2023-08-07T17:32:50;3.03;;;1.70;;
23658;SDS011;12006;42.666;23.326;2023-08-07T17:36:13;2.90;;;1.55;;
23658;SDS011;12006;42.666;23.326;2023-08-07T17:39:39;1.63;;;1.52;;
23658;SDS011;12006;42.666;23.326;2023-08-07T17:43:03;1.98;;;1.45;;
23658;SDS011;12006;42.666;23.326;2023-08-07T17:46:27;2.15;;;1.35;;
23658;SDS011;12006;42.666;23.326;2023-08-07T17:49:51;1.90;;;1.60;;
23658;SDS011;12006;42.666;23.326;2023-08-07T17:53:18;1.60;;;1.50;;
23658;SDS011;12006;42.666;23.326;2023-08-07T17:56:42;2.08;;;1.30;;
23658;SDS011;12006;42.666;23.326;2023-08-07T18:00:06;1.77;;;1.55;;
23658;SDS011;12006;42.666;23.326;2023-08-07T18:03:30;1.70;;;1.60;;
23658;SDS011;12006;42.666;23.326;2023-08-07T18:06:54;1.58;;;1.42;;
23658;SDS011;12006;42.666;23.326;2023-08-07T18:10:18;1.70;;;1.60;;
23658;SDS011;12006;42.666;23.326;2023-08-07T18:13:42;1.63;;;1.52;;
23658;SDS011;12006;42.666;23.326;2023-08-07T18:17:06;1.48;;;1.38;;
23658;SDS011;12006;42.666;23.326;2023-08-07T18:20:30;2.85;;;1.95;;
23658;SDS011;12006;42.666;23.326;2023-08-07T18:23:54;1.70;;;1.50;;
23658;SDS011;12006;42.666;23.326;2023-08-07T18:27:18;1.92;;;1.70;;
23658;SDS011;12006;42.666;23.326;2023-08-07T18:30:42;2.30;;;2.10;;
23658;SDS011;12006;42.666;23.326;2023-08-07T18:34:06;2.60;;;1.90;;
23658;SDS011;12006;42.666;23.326;2023-08-07T18:37:30;2.10;;;1.90;;
23658;SDS011;12006;42.666;23.326;2023-08-07T18:40:54;1.40;;;1.30;;
23658;SDS011;12006;42.666;23.326;2023-08-07T18:44:18;1.67;;;1.58;;
23658;SDS011;12006;42.666;23.326;2023-08-07T18:47:42;1.48;;;1.38;;
23658;SDS011;12006;42.666;23.326;2023-08-07T18:51:06;1.63;;;1.52;;
23658;SDS011;12006;42.666;23.326;2023-08-07T18:54:30;3.13;;;1.80;;
23658;SDS011;12006;42.666;23.326;2023-08-07T18:57:55;2.13;;;1.92;;
23658;SDS011;12006;42.666;23.326;2023-08-07T19:01:19;2.35;;;1.75;;
23658;SDS011;12006;42.666;23.326;2023-08-07T19:04:43;2.10;;;1.90;;
23658;SDS011;12006;42.666;23.326;2023-08-07T19:08:07;2.63;;;1.73;;
23658;SDS011;12006;42.666;23.326;2023-08-07T19:11:31;2.08;;;1.73;;
23658;SDS011;12006;42.666;23.326;2023-08-07T19:14:55;2.00;;;1.80;;
23658;SDS011;12006;42.666;23.326;2023-08-07T19:18:19;2.00;;;1.80;;
23658;SDS011;12006;42.666;23.326;2023-08-07T19:21:43;3.17;;;1.52;;
23658;SDS011;12006;42.666;23.326;2023-08-07T19:25:07;2.53;;;1.73;;
23658;SDS011;12006;42.666;23.326;2023-08-07T19:28:32;1.70;;;1.55;;
23658;SDS011;12006;42.666;23.326;2023-08-07T19:31:56;1.95;;;1.60;;
23658;SDS011;12006;42.666;23.326;2023-08-07T19:35:20;2.78;;;2.47;;
23658;SDS011;12006;42.666;23.326;2023-08-07T19:38:44;2.30;;;2.10;;
23658;SDS011;12006;42.666;23.326;2023-08-07T19:42:08;2.10;;;1.90;;
23658;SDS011;12006;42.666;23.326;2023-08-07T19:45:33;2.75;;;1.67;;
23658;SDS011;12006;42.666;23.326;2023-08-07T19:48:57;2.28;;;1.95;;
23658;SDS011;12006;42.666;23.326;2023-08-07T19:52:21;2.70;;;1.42;;
23658;SDS011;12006;42.666;23.326;2023-08-07T19:55:45;1.88;;;1.52;;
23658;SDS011;12006;42.666;23.326;2023-08-07T19:59:09;1.60;;;1.50;;
23658;SDS011;12006;42.666;23.326;2023-08-07T20:02:34;1.98;;;1.70;;
23658;SDS011;12006;42.666;23.326;2023-08-07T20:05:58;2.13;;;1.45;;
23658;SDS011;12006;42.666;23.326;2023-08-07T20:09:22;1.30;;;1.20;;
23658;SDS011;12006;42.666;23.326;2023-08-07T20:12:49;1.95;;;1.70;;
23658;SDS011;12006;42.666;23.326;2023-08-07T20:16:13;1.60;;;1.50;;
23658;SDS011;12006;42.666;23.326;2023-08-07T20:19:37;2.00;;;1.70;;
23658;SDS011;12006;42.666;23.326;2023-08-07T20:23:01;2.38;;;2.03;;
23658;SDS011;12006;42.666;23.326;2023-08-07T20:26:25;3.95;;;2.22;;